Time;durP1;ratioP1;P1;durP2;ratioP2;P2;SDS_P1;SDS_P2;PMS_P1;PMS_P2;Temp;Humidity;BMP_temperature;BMP_pressure;BME280_temperature;BME280_humidity;BME280_pressure;Samples;Min_cycle;Max_cycle;Signal;HPM_P1;HPM_P2
2021/05/03 00:02:06;;;;;;;3.13;2.83;;;6.90;99.90;;;;;;5030790;28;20252;-50
2021/05/03 00:04:33;;;;;;;2.97;2.50;;;6.90;99.90;;;;;;5032135;28;20335;-50
2021/05/03 00:07:00;;;;;;;3.23;2.67;;;6.80;99.90;;;;;;5032720;28;20291;-49
2021/05/03 00:09:26;;;;;;;3.37;2.50;;;6.80;99.90;;;;;;5030133;28;20211;-50
2021/05/03 00:11:52;;;;;;;6.00;3.13;;;6.80;99.90;;;;;;5033256;28;20202;-49
2021/05/03 00:14:19;;;;;;;3.47;2.83;;;6.70;99.90;;;;;;5034167;28;20711;-49
2021/05/03 00:16:45;;;;;;;3.53;2.70;;;6.70;99.90;;;;;;5033590;28;20288;-50
2021/05/03 00:19:12;;;;;;;3.80;2.73;;;6.90;99.90;;;;;;5033711;28;20214;-49
2021/05/03 00:21:39;;;;;;;3.53;3.10;;;6.70;99.90;;;;;;5034989;28;20286;-49
2021/05/03 00:24:06;;;;;;;3.40;2.60;;;6.60;99.90;;;;;;5033487;28;20354;-49
2021/05/03 00:26:32;;;;;;;3.00;2.70;;;6.70;99.90;;;;;;5032394;28;20638;-49
2021/05/03 00:28:59;;;;;;;3.60;2.97;;;6.80;99.90;;;;;;5033073;28;20218;-49
2021/05/03 00:31:25;;;;;;;3.00;2.60;;;6.80;99.90;;;;;;5031104;28;20201;-49
2021/05/03 00:33:52;;;;;;;3.40;2.47;;;6.90;99.90;;;;;;5028634;28;20731;-50
2021/05/03 00:36:18;;;;;;;3.67;2.70;;;6.90;99.90;;;;;;5031888;28;20244;-50
2021/05/03 00:38:44;;;;;;;5.63;2.87;;;6.90;99.90;;;;;;5030883;28;20638;-49
2021/05/03 00:41:11;;;;;;;4.10;3.13;;;7.00;99.90;;;;;;5026859;28;21531;-49
2021/05/03 00:43:37;;;;;;;4.17;3.00;;;6.80;99.90;;;;;;5028924;28;20303;-49
2021/05/03 00:46:03;;;;;;;4.07;3.30;;;6.90;99.90;;;;;;5031020;28;20299;-50
2021/05/03 00:48:30;;;;;;;4.27;3.03;;;6.80;99.90;;;;;;5029007;28;20738;-49
2021/05/03 00:50:56;;;;;;;3.67;3.20;;;6.70;99.90;;;;;;5030797;28;20234;-50
2021/05/03 00:53:23;;;;;;;6.07;3.80;;;6.60;99.90;;;;;;5030424;28;20332;-50
2021/05/03 00:55:49;;;;;;;4.37;3.43;;;6.70;99.90;;;;;;5031400;28;20258;-49
2021/05/03 00:58:15;;;;;;;3.80;3.00;;;6.70;99.90;;;;;;5027597;28;20307;-49
2021/05/03 01:00:41;;;;;;;4.93;3.73;;;6.60;99.90;;;;;;5030077;28;20266;-49
2021/05/03 01:03:08;;;;;;;4.93;3.70;;;6.60;99.90;;;;;;5028876;28;20374;-50
2021/05/03 01:05:35;;;;;;;6.00;3.30;;;6.40;99.90;;;;;;5031837;28;20364;-49
2021/05/03 01:08:03;;;;;;;4.13;2.87;;;6.10;99.90;;;;;;5029349;28;20205;-50
2021/05/03 01:10:30;;;;;;;4.27;3.50;;;5.90;99.90;;;;;;5030011;28;20527;-49
2021/05/03 01:12:58;;;;;;;5.77;3.20;;;5.70;99.90;;;;;;5026844;28;20581;-49
2021/05/03 01:15:26;;;;;;;4.40;3.03;;;5.60;99.90;;;;;;5030929;28;20668;-50
2021/05/03 01:17:59;;;;;;;5.57;4.00;;;5.90;99.90;;;;;;5029695;28;20608;-49
2021/05/03 01:20:28;;;;;;;6.03;3.70;;;5.70;99.90;;;;;;5028967;28;20237;-50
2021/05/03 01:22:59;;;;;;;5.80;3.83;;;5.60;99.90;;;;;;5029875;28;20202;-49
2021/05/03 01:25:30;;;;;;;7.53;3.50;;;5.80;99.90;;;;;;5025844;28;20235;-50
2021/05/03 01:28:01;;;;;;;7.63;3.10;;;5.80;99.90;;;;;;5027771;28;20257;-49
2021/05/03 01:30:33;;;;;;;4.37;3.30;;;5.70;99.90;;;;;;5027912;28;20308;-50
2021/05/03 01:33:00;;;;;;;4.63;3.63;;;5.60;99.90;;;;;;5026949;28;21018;-49
2021/05/03 01:35:27;;;;;;;4.57;3.27;;;5.50;99.90;;;;;;5029447;28;20520;-49
2021/05/03 01:37:55;;;;;;;4.90;3.27;;;5.50;99.90;;;;;;5028501;28;20326;-49
2021/05/03 01:40:24;;;;;;;3.97;3.40;;;5.50;99.90;;;;;;5030861;28;20230;-50
2021/05/03 01:42:51;;;;;;;5.17;3.47;;;5.70;99.90;;;;;;5028985;28;20222;-49
2021/05/03 01:45:21;;;;;;;5.07;3.30;;;5.80;99.90;;;;;;5027119;28;20634;-50
2021/05/03 01:47:49;;;;;;;3.63;3.20;;;5.80;99.90;;;;;;5030454;28;21003;-50
2021/05/03 01:50:17;;;;;;;4.73;3.10;;;5.90;99.90;;;;;;5028484;28;20304;-50
2021/05/03 01:52:43;;;;;;;4.87;3.43;;;5.90;99.90;;;;;;5029227;28;20218;-49
2021/05/03 01:55:11;;;;;;;4.30;3.47;;;6.00;99.90;;;;;;5026807;28;20225;-50
2021/05/03 01:57:37;;;;;;;4.43;3.17;;;5.70;99.90;;;;;;5029575;28;20223;-49
2021/05/03 02:00:07;;;;;;;4.80;3.30;;;5.50;99.90;;;;;;5026592;28;20674;-49
2021/05/03 02:02:34;;;;;;;6.00;3.93;;;5.50;99.90;;;;;;5028162;28;20214;-49
2021/05/03 02:05:00;;;;;;;4.73;4.20;;;5.30;99.90;;;;;;5028819;28;20295;-49
2021/05/03 02:07:26;;;;;;;6.77;4.10;;;5.20;99.90;;;;;;5030239;28;20287;-50
2021/05/03 02:09:53;;;;;;;5.83;4.13;;;5.10;99.90;;;;;;5028583;28;20296;-49
2021/05/03 02:12:19;;;;;;;5.83;4.57;;;5.10;99.90;;;;;;5027455;28;20210;-50
2021/05/03 02:14:45;;;;;;;6.67;3.90;;;5.30;99.90;;;;;;5028996;28;20575;-49
2021/05/03 02:17:12;;;;;;;5.43;4.00;;;5.50;99.90;;;;;;5028573;28;20292;-49
2021/05/03 02:19:40;;;;;;;5.60;3.80;;;5.40;99.90;;;;;;5028271;28;20799;-49
2021/05/03 02:22:06;;;;;;;6.33;4.27;;;5.50;99.90;;;;;;5026387;28;20631;-50
2021/05/03 02:24:32;;;;;;;5.57;3.80;;;5.60;99.90;;;;;;5027547;28;20326;-49
2021/05/03 02:26:59;;;;;;;5.47;3.90;;;5.30;99.90;;;;;;5028048;28;20242;-49
2021/05/03 02:29:25;;;;;;;7.40;3.63;;;5.10;99.90;;;;;;5027297;28;20235;-49
2021/05/03 02:31:51;;;;;;;4.03;3.50;;;5.20;99.90;;;;;;5027137;28;20230;-49
2021/05/03 02:34:17;;;;;;;6.73;4.63;;;5.20;99.90;;;;;;5029891;28;20641;-49
2021/05/03 02:36:44;;;;;;;4.03;3.50;;;5.10;99.90;;;;;;5026610;28;20338;-49
2021/05/03 02:39:10;;;;;;;6.80;3.53;;;5.10;99.90;;;;;;5031340;28;20291;-49
2021/05/03 02:41:36;;;;;;;6.23;3.53;;;5.20;99.90;;;;;;5028763;28;20260;-49
2021/05/03 02:44:03;;;;;;;5.67;4.17;;;5.20;99.90;;;;;;5025824;28;20215;-49
2021/05/03 02:46:30;;;;;;;4.80;4.23;;;5.50;99.90;;;;;;5026384;28;20238;-49
2021/05/03 02:48:56;;;;;;;8.40;4.43;;;5.50;99.90;;;;;;5029128;28;20301;-49
2021/05/03 02:51:22;;;;;;;5.67;4.50;;;5.50;99.90;;;;;;5028379;28;20816;-49
2021/05/03 02:53:49;;;;;;;8.53;4.57;;;5.30;99.90;;;;;;5027800;28;20235;-49
2021/05/03 02:56:15;;;;;;;5.60;4.23;;;5.50;99.90;;;;;;5027508;28;20273;-49
2021/05/03 02:58:41;;;;;;;5.77;4.13;;;5.60;99.90;;;;;;5025571;28;20635;-49
2021/05/03 03:01:08;;;;;;;8.13;4.60;;;5.60;99.90;;;;;;5023728;28;20297;-49
2021/05/03 03:03:34;;;;;;;7.23;4.97;;;5.70;99.90;;;;;;5027286;28;20210;-49
2021/05/03 03:06:01;;;;;;;6.17;5.00;;;5.40;99.90;;;;;;5030265;28;20289;-50
2021/05/03 03:08:27;;;;;;;5.23;4.60;;;5.60;99.90;;;;;;5029652;28;20632;-49
2021/05/03 03:10:53;;;;;;;6.73;5.17;;;5.60;99.90;;;;;;5031090;28;20364;-50
2021/05/03 03:13:20;;;;;;;8.03;5.30;;;5.70;99.90;;;;;;5025759;28;20234;-49
2021/05/03 03:15:46;;;;;;;8.37;4.63;;;5.70;99.90;;;;;;5027153;28;20305;-49
2021/05/03 03:18:12;;;;;;;8.93;5.43;;;5.70;99.90;;;;;;5025716;28;20584;-49
2021/05/03 03:20:39;;;;;;;8.00;5.37;;;5.50;99.90;;;;;;5029998;28;20311;-49
2021/05/03 03:23:05;;;;;;;6.80;5.00;;;5.60;99.90;;;;;;5024093;28;20287;-49
2021/05/03 03:25:32;;;;;;;7.57;5.67;;;5.70;99.90;;;;;;5025804;28;20315;-49
2021/05/03 03:27:58;;;;;;;7.60;5.33;;;5.60;99.90;;;;;;5029578;28;20611;-49
2021/05/03 03:30:24;;;;;;;7.67;5.17;;;5.60;99.90;;;;;;5025009;28;20209;-49
2021/05/03 03:32:51;;;;;;;5.97;5.00;;;5.60;99.90;;;;;;5025396;28;20262;-49
2021/05/03 03:35:18;;;;;;;6.87;4.53;;;5.60;99.90;;;;;;5029479;28;20225;-50
2021/05/03 03:37:46;;;;;;;7.53;4.93;;;5.50;99.90;;;;;;5025388;28;20197;-49
2021/05/03 03:40:14;;;;;;;7.20;5.00;;;5.30;99.90;;;;;;5027421;28;20263;-49
2021/05/03 03:42:41;;;;;;;9.47;4.83;;;5.40;99.90;;;;;;5025503;28;20909;-50
2021/05/03 03:45:09;;;;;;;6.70;4.97;;;5.40;99.90;;;;;;5027108;28;20207;-50
2021/05/03 03:47:36;;;;;;;6.97;5.07;;;5.40;99.90;;;;;;5033151;28;20208;-49
2021/05/03 03:50:04;;;;;;;6.50;5.10;;;5.50;99.90;;;;;;5030066;28;20214;-49
2021/05/03 03:52:31;;;;;;;8.07;5.10;;;5.40;99.90;;;;;;5028945;28;20658;-49
2021/05/03 03:54:57;;;;;;;6.87;5.00;;;5.50;99.90;;;;;;5031870;28;20304;-49
2021/05/03 03:57:23;;;;;;;7.07;4.80;;;5.50;99.90;;;;;;5031141;28;20667;-49
2021/05/03 03:59:54;;;;;;;6.83;5.03;;;5.20;99.90;;;;;;5031565;28;20207;-49
2021/05/03 04:02:21;;;;;;;8.83;4.90;;;5.10;99.90;;;;;;5028018;28;20229;-49
2021/05/03 04:05:02;;;;;;;6.50;4.90;;;5.30;99.90;;;;;;5033159;28;20611;-50
2021/05/03 04:10:04;;;;;;;8.03;4.97;;;5.00;99.90;;;;;;5031618;28;20232;-50
2021/05/03 04:26:16;;;;;;;8.07;5.10;;;4.80;99.90;;;;;;5031764;28;20257;-49
2021/05/03 04:28:48;;;;;;;8.47;5.20;;;4.70;99.90;;;;;;5028003;28;20209;-49
2021/05/03 04:31:16;;;;;;;7.07;5.30;;;4.70;99.90;;;;;;5030335;28;20291;-49
2021/05/03 04:33:42;;;;;;;8.07;5.13;;;4.70;99.90;;;;;;5028996;28;20214;-49
2021/05/03 04:36:09;;;;;;;6.33;4.70;;;4.90;99.90;;;;;;5030136;28;20237;-49
2021/05/03 04:38:35;;;;;;;7.90;5.87;;;4.80;99.90;;;;;;5031089;28;20304;-49
2021/05/03 04:41:02;;;;;;;7.13;5.27;;;4.90;99.90;;;;;;5028258;28;20708;-50
2021/05/03 04:43:29;;;;;;;9.67;5.43;;;4.80;99.90;;;;;;5030234;28;20493;-49
2021/05/03 04:45:56;;;;;;;8.43;5.30;;;4.80;99.90;;;;;;5029010;28;20296;-50
2021/05/03 04:48:22;;;;;;;7.57;5.13;;;4.70;99.90;;;;;;5031581;28;20762;-49
2021/05/03 04:50:49;;;;;;;9.90;4.80;;;4.80;99.90;;;;;;5032661;28;20306;-49
2021/05/03 04:53:15;;;;;;;10.03;5.97;;;4.70;99.90;;;;;;5029804;28;20309;-49
2021/05/03 04:55:42;;;;;;;9.07;6.10;;;4.80;99.90;;;;;;5029547;28;20308;-49
2021/05/03 04:58:08;;;;;;;10.47;5.93;;;4.80;99.90;;;;;;5028863;28;20241;-49
2021/05/03 05:00:34;;;;;;;8.17;5.47;;;4.70;99.90;;;;;;5029116;28;20286;-49
2021/05/03 05:03:01;;;;;;;7.20;5.13;;;4.80;99.90;;;;;;5030063;28;20230;-49
2021/05/03 05:05:28;;;;;;;8.83;5.90;;;4.80;99.90;;;;;;5029483;28;20264;-49
2021/05/03 05:07:55;;;;;;;6.23;5.33;;;4.90;99.90;;;;;;5032107;28;22214;-49
2021/05/03 05:10:22;;;;;;;6.87;4.60;;;4.80;99.90;;;;;;5027325;28;20209;-50
2021/05/03 05:12:49;;;;;;;7.87;5.30;;;5.00;99.90;;;;;;5028893;28;20206;-49
2021/05/03 05:15:17;;;;;;;10.27;5.13;;;5.20;99.90;;;;;;5030994;28;20224;-49
2021/05/03 05:17:43;;;;;;;7.33;5.47;;;5.20;99.90;;;;;;5029716;28;20271;-49
2021/05/03 05:20:10;;;;;;;7.43;4.97;;;5.20;99.90;;;;;;5033566;28;20779;-50
2021/05/03 05:22:38;;;;;;;6.67;5.00;;;5.20;99.90;;;;;;5028350;28;20772;-49
2021/05/03 05:25:05;;;;;;;7.87;5.60;;;5.20;99.90;;;;;;5030012;28;20301;-49
2021/05/03 05:27:32;;;;;;;9.20;4.93;;;5.20;99.90;;;;;;5031758;28;20276;-49
2021/05/03 05:29:58;;;;;;;7.67;5.10;;;5.40;99.90;;;;;;5032305;28;20680;-49
2021/05/03 05:32:24;;;;;;;5.97;4.63;;;5.40;99.90;;;;;;5024138;28;20260;-49
2021/05/03 05:34:51;;;;;;;6.57;4.77;;;5.60;99.90;;;;;;5030539;28;20843;-49
2021/05/03 05:37:17;;;;;;;11.13;5.10;;;5.60;99.90;;;;;;5031680;28;20236;-50
2021/05/03 05:39:43;;;;;;;6.23;4.20;;;5.60;99.90;;;;;;5030067;28;20242;-49
2021/05/03 05:42:10;;;;;;;9.97;5.67;;;5.70;99.90;;;;;;5026486;28;20221;-50
2021/05/03 05:44:36;;;;;;;5.07;4.40;;;5.40;99.90;;;;;;5028858;28;20223;-49
2021/05/03 05:47:02;;;;;;;5.73;4.40;;;5.50;99.90;;;;;;5030807;28;20202;-49
2021/05/03 05:49:29;;;;;;;10.33;5.00;;;5.80;99.90;;;;;;5029382;28;20204;-50
2021/05/03 05:51:55;;;;;;;6.70;4.53;;;6.00;99.90;;;;;;5028236;28;20290;-49
2021/05/03 05:54:22;;;;;;;7.43;5.03;;;5.80;99.90;;;;;;5029204;28;20302;-50
2021/05/03 05:56:48;;;;;;;5.60;4.30;;;5.70;99.90;;;;;;5030948;28;20748;-50
2021/05/03 05:59:15;;;;;;;6.40;4.73;;;5.70;99.90;;;;;;5031512;28;20201;-50
2021/05/03 06:01:42;;;;;;;5.80;4.13;;;5.80;99.90;;;;;;5023048;28;20262;-49
2021/05/03 06:04:08;;;;;;;5.70;4.13;;;5.80;99.90;;;;;;5030256;28;20618;-49
2021/05/03 06:06:35;;;;;;;6.13;4.77;;;6.10;99.90;;;;;;5027756;28;20285;-50
2021/05/03 06:09:02;;;;;;;6.20;4.63;;;6.10;99.90;;;;;;5029655;28;20211;-49
2021/05/03 06:11:28;;;;;;;10.10;5.17;;;5.90;99.90;;;;;;5027110;28;20292;-49
2021/05/03 06:13:54;;;;;;;7.30;4.07;;;6.20;99.90;;;;;;5029484;28;20313;-49
2021/05/03 06:16:21;;;;;;;5.07;4.27;;;6.20;99.90;;;;;;5027665;28;20369;-50
2021/05/03 06:18:47;;;;;;;5.20;4.17;;;6.30;99.90;;;;;;5029590;28;20204;-49
2021/05/03 06:21:14;;;;;;;5.90;4.10;;;6.50;99.90;;;;;;5028617;28;20592;-49
2021/05/03 06:23:40;;;;;;;5.73;4.13;;;6.50;99.90;;;;;;5025731;28;20211;-49
2021/05/03 06:26:06;;;;;;;7.23;4.17;;;6.60;99.90;;;;;;5025284;28;20278;-49
2021/05/03 06:28:33;;;;;;;7.67;4.30;;;6.60;99.90;;;;;;5031011;28;20284;-49
2021/05/03 06:30:59;;;;;;;4.13;3.73;;;6.60;99.90;;;;;;5023299;28;20291;-49
2021/05/03 06:33:26;;;;;;;5.37;3.60;;;6.70;99.90;;;;;;5028923;28;20281;-50
2021/05/03 06:35:53;;;;;;;7.17;3.83;;;6.70;99.90;;;;;;5030751;28;20209;-50
2021/05/03 06:38:21;;;;;;;6.63;4.10;;;6.80;99.90;;;;;;5026507;28;20205;-49
2021/05/03 06:40:48;;;;;;;5.07;3.47;;;7.10;99.90;;;;;;5029601;28;20560;-50
2021/05/03 06:43:15;;;;;;;4.80;4.00;;;7.40;99.90;;;;;;5025712;28;20237;-49
2021/05/03 06:45:42;;;;;;;5.20;3.90;;;7.50;99.90;;;;;;5027431;28;20648;-50
2021/05/03 06:48:09;;;;;;;5.63;3.90;;;7.60;99.90;;;;;;5024346;28;20462;-49
2021/05/03 06:50:37;;;;;;;9.77;4.20;;;7.80;99.90;;;;;;5027155;28;20199;-50
2021/05/03 06:53:04;;;;;;;6.40;4.20;;;7.80;99.90;;;;;;5026000;28;20258;-50
2021/05/03 06:55:30;;;;;;;5.93;4.47;;;8.10;99.90;;;;;;5028381;28;20684;-49
2021/05/03 06:57:56;;;;;;;6.97;4.53;;;8.10;99.90;;;;;;5028609;28;20637;-50
2021/05/03 07:00:24;;;;;;;7.90;5.20;;;8.40;99.90;;;;;;5024107;28;20235;-49
2021/05/03 07:02:52;;;;;;;8.10;6.10;;;8.30;99.90;;;;;;5026517;28;20280;-49
2021/05/03 07:05:18;;;;;;;7.73;4.83;;;8.30;99.90;;;;;;5026222;28;20680;-50
2021/05/03 07:07:45;;;;;;;9.17;5.67;;;8.60;99.90;;;;;;5028227;28;20653;-49
2021/05/03 07:10:13;;;;;;;7.90;5.93;;;8.70;99.90;;;;;;5026548;28;20352;-50
2021/05/03 07:12:44;;;;;;;11.30;6.57;;;8.70;99.90;;;;;;5028994;28;20659;-49
2021/05/03 07:15:12;;;;;;;11.47;7.60;;;8.60;99.90;;;;;;5025135;28;20322;-49
2021/05/03 07:17:39;;;;;;;8.63;7.13;;;8.80;99.90;;;;;;5028930;28;20217;-49
2021/05/03 07:20:08;;;;;;;11.10;7.30;;;8.90;99.90;;;;;;5027107;28;20204;-49
2021/05/03 07:22:35;;;;;;;11.50;7.87;;;9.10;99.90;;;;;;5024088;28;20295;-50
2021/05/03 07:25:05;;;;;;;11.97;8.53;;;9.40;99.90;;;;;;5023294;28;20703;-49
2021/05/03 07:27:34;;;;;;;11.93;8.87;;;9.10;99.90;;;;;;5028576;28;20299;-50
2021/05/03 07:30:00;;;;;;;13.37;8.77;;;9.30;99.90;;;;;;5027913;28;20210;-49
2021/05/03 07:32:26;;;;;;;15.10;9.67;;;9.50;99.90;;;;;;5025770;28;20265;-49
2021/05/03 07:34:54;;;;;;;11.97;9.30;;;9.60;99.90;;;;;;5027366;28;20653;-50
2021/05/03 07:37:20;;;;;;;12.97;9.63;;;9.50;99.90;;;;;;5027445;28;20645;-50
2021/05/03 07:39:48;;;;;;;15.27;10.00;;;9.50;99.90;;;;;;5024011;28;20219;-50
2021/05/03 07:42:15;;;;;;;15.00;10.27;;;9.80;99.90;;;;;;5032064;28;21836;-50
2021/05/03 07:45:01;;;;;;;13.03;9.30;;;10.10;99.90;;;;;;5030156;28;20314;-50
2021/05/03 07:47:28;;;;;;;16.87;10.00;;;10.30;99.90;;;;;;5026817;28;20207;-50
2021/05/03 07:49:55;;;;;;;15.67;9.00;;;9.90;99.90;;;;;;5028615;28;20216;-51
2021/05/03 07:52:21;;;;;;;11.60;8.50;;;9.90;99.90;;;;;;5027283;28;20204;-51
2021/05/03 07:54:47;;;;;;;14.87;9.97;;;10.20;99.90;;;;;;5027084;28;20327;-50
2021/05/03 07:57:14;;;;;;;12.33;8.43;;;10.60;99.90;;;;;;5027852;28;20232;-51
2021/05/03 07:59:40;;;;;;;12.00;9.57;;;10.60;99.90;;;;;;5030863;28;20226;-50
2021/05/03 08:02:07;;;;;;;12.77;9.30;;;10.70;99.90;;;;;;5027064;28;20664;-50
2021/05/03 08:04:34;;;;;;;14.70;8.77;;;10.80;99.90;;;;;;5029857;28;20295;-51
2021/05/03 08:07:01;;;;;;;10.83;8.27;;;10.60;99.90;;;;;;5024731;28;20269;-50
2021/05/03 08:09:28;;;;;;;14.70;9.50;;;10.90;99.90;;;;;;5019140;28;20225;-50
2021/05/03 08:11:55;;;;;;;14.93;8.70;;;11.10;99.90;;;;;;5029382;28;20236;-49
2021/05/03 08:14:22;;;;;;;13.43;9.27;;;10.90;97.30;;;;;;5027360;28;20200;-51
2021/05/03 08:16:58;;;;;;;12.33;9.43;;;10.90;97.40;;;;;;5026993;28;20677;-63
2021/05/03 08:19:25;;;;;;;15.67;8.53;;;11.10;94.70;;;;;;5027296;28;20222;-61
2021/05/03 08:21:56;;;;;;;15.27;8.80;;;11.00;96.80;;;;;;5027834;28;20208;-63
2021/05/03 08:24:22;;;;;;;13.00;9.33;;;11.10;98.50;;;;;;5015214;28;20236;-63
2021/05/03 08:26:48;;;;;;;13.27;9.53;;;11.30;96.80;;;;;;5029806;28;20615;-60
2021/05/03 08:29:15;;;;;;;13.17;9.03;;;11.70;98.30;;;;;;5027326;28;20211;-60
2021/05/03 08:31:41;;;;;;;16.43;9.53;;;11.80;91.90;;;;;;5025961;28;20298;-60
2021/05/03 08:34:08;;;;;;;11.97;9.30;;;11.90;92.30;;;;;;5031637;28;20670;-60
2021/05/03 08:36:35;;;;;;;12.60;8.63;;;12.00;91.40;;;;;;5031908;28;20228;-60
2021/05/03 08:39:04;;;;;;;13.83;8.67;;;12.40;91.80;;;;;;5029629;28;20204;-60
2021/05/03 08:41:32;;;;;;;10.47;9.17;;;12.30;90.80;;;;;;5033378;28;20633;-60
2021/05/03 08:43:59;;;;;;;11.50;8.70;;;12.30;80.90;;;;;;5034863;28;20233;-60
2021/05/03 08:46:27;;;;;;;14.53;9.27;;;12.30;85.00;;;;;;5032484;28;20210;-60
2021/05/03 08:52:03;;;;;;;16.20;8.03;;;12.20;80.40;;;;;;5036449;28;20212;-60
2021/05/03 08:54:40;;;;;;;10.00;7.40;;;12.30;86.20;;;;;;5033817;28;20202;-60
2021/05/03 08:57:10;;;;;;;13.30;8.33;;;12.20;74.30;;;;;;5031909;28;20224;-60
2021/05/03 08:59:37;;;;;;;12.70;8.17;;;12.30;87.50;;;;;;5034596;28;20208;-60
2021/05/03 09:02:05;;;;;;;13.13;9.00;;;12.40;77.60;;;;;;5033797;28;20223;-60
2021/05/03 09:04:33;;;;;;;16.10;8.87;;;12.50;82.00;;;;;;5019720;28;20193;-60
2021/05/03 09:07:19;;;;;;;13.83;8.87;;;12.40;74.30;;;;;;5018503;28;20212;-60
2021/05/03 09:09:52;;;;;;;10.17;7.90;;;12.30;75.40;;;;;;5034185;28;20270;-60
2021/05/03 09:12:23;;;;;;;11.27;9.20;;;12.70;76.70;;;;;;5032711;28;20208;-60
2021/05/03 09:15:00;;;;;;;14.30;8.73;;;12.60;67.70;;;;;;5035669;28;20274;-60
2021/05/03 09:17:41;;;;;;;10.23;7.73;;;12.70;71.60;;;;;;5034353;28;20299;-60
2021/05/03 09:20:17;;;;;;;11.53;8.33;;;12.70;70.90;;;;;;5036436;28;20535;-60
2021/05/03 09:22:52;;;;;;;11.93;7.97;;;12.60;72.80;;;;;;5034806;28;20327;-60
2021/05/03 09:25:29;;;;;;;13.27;8.60;;;12.70;64.20;;;;;;5037167;28;20334;-61
2021/05/03 09:28:14;;;;;;;11.93;8.00;;;12.80;64.90;;;;;;5047992;28;20228;-60
2021/05/03 09:30:46;;;;;;;9.33;7.20;;;12.70;61.20;;;;;;5032583;28;20205;-60
2021/05/03 09:33:24;;;;;;;10.07;7.47;;;12.60;59.40;;;;;;5030690;28;20291;-58
2021/05/03 09:35:53;;;;;;;8.90;6.97;;;12.80;55.00;;;;;;5027194;28;20213;-58
2021/05/03 09:38:29;;;;;;;11.30;8.07;;;13.10;60.10;;;;;;5033131;28;20202;-59
2021/05/03 09:41:14;;;;;;;10.13;7.27;;;13.10;54.30;;;;;;5034596;28;20631;-49
2021/05/03 09:43:44;;;;;;;10.43;7.40;;;13.00;54.00;;;;;;5031289;28;20638;-52
2021/05/03 09:46:48;;;;;;;8.77;6.93;;;13.00;51.10;;;;;;5033285;28;20211;-49
2021/05/03 09:49:18;;;;;;;8.90;7.07;;;13.40;51.30;;;;;;5037023;28;20211;-50
2021/05/03 09:51:57;;;;;;;10.03;7.40;;;13.30;48.60;;;;;;5029853;28;20271;-50
2021/05/03 09:54:28;;;;;;;13.00;7.60;;;13.50;47.10;;;;;;5033472;28;20261;-50
2021/05/03 09:57:05;;;;;;;10.27;7.27;;;13.30;46.80;;;;;;5029023;28;20396;-50
2021/05/03 09:59:45;;;;;;;11.30;7.23;;;13.30;47.30;;;;;;5031282;28;20203;-49
2021/05/03 10:02:24;;;;;;;8.23;6.83;;;13.40;47.40;;;;;;5032392;28;20246;-50
2021/05/03 10:05:11;;;;;;;9.17;7.23;;;13.50;45.30;;;;;;5036328;28;20215;-49
2021/05/03 10:07:40;;;;;;;11.17;6.73;;;13.80;42.80;;;;;;5035419;28;20227;-49
2021/05/03 10:10:21;;;;;;;7.63;6.40;;;14.10;43.20;;;;;;5036512;28;20291;-50
2021/05/03 10:12:48;;;;;;;8.67;6.20;;;13.90;38.90;;;;;;5036793;28;20273;-50
2021/05/03 10:15:17;;;;;;;8.27;6.50;;;13.50;40.60;;;;;;5032920;28;20218;-50
2021/05/03 10:17:44;;;;;;;10.67;7.73;;;13.70;38.40;;;;;;5029975;28;20633;-50
2021/05/03 10:20:13;;;;;;;7.77;6.50;;;13.40;37.30;;;;;;5032497;28;20207;-49
2021/05/03 10:22:40;;;;;;;8.30;6.77;;;13.50;42.80;;;;;;5031659;28;20613;-50
2021/05/03 10:25:11;;;;;;;9.20;6.87;;;13.80;43.10;;;;;;5030787;28;20314;-50
2021/05/03 10:27:42;;;;;;;7.10;5.73;;;13.50;40.20;;;;;;5031390;28;20266;-50
2021/05/03 10:30:15;;;;;;;10.73;6.53;;;13.50;37.30;;;;;;5027451;28;20202;-50
2021/05/03 10:32:44;;;;;;;7.63;5.50;;;13.90;37.10;;;;;;5032223;28;20249;-49
2021/05/03 10:35:27;;;;;;;10.43;7.40;;;14.10;34.20;;;;;;5033119;28;20303;-49
2021/05/03 10:37:58;;;;;;;8.30;7.50;;;13.70;32.10;;;;;;5031827;28;20616;-49
2021/05/03 10:40:24;;;;;;;7.97;7.17;;;13.30;34.50;;;;;;5028061;28;20342;-49
2021/05/03 10:43:03;;;;;;;8.63;7.73;;;13.40;33.90;;;;;;5031087;28;20254;-49
2021/05/03 10:45:40;;;;;;;8.77;7.40;;;13.80;36.00;;;;;;5029720;28;20211;-50
2021/05/03 10:48:33;;;;;;;11.60;8.83;;;13.70;36.10;;;;;;5032554;28;20272;-49
2021/05/03 10:51:01;;;;;;;8.07;7.27;;;13.90;33.00;;;;;;5030890;28;20915;-49
2021/05/03 10:56:07;;;;;;;9.20;7.50;;;14.10;39.00;;;;;;5033080;28;20244;-51
2021/05/03 10:58:52;;;;;;;10.67;8.63;;;13.80;35.20;;;;;;5034023;28;20585;-50
2021/05/03 11:01:19;;;;;;;8.10;7.30;;;14.00;30.60;;;;;;5026159;28;20235;-50
2021/05/03 11:03:55;;;;;;;12.37;8.30;;;13.90;31.80;;;;;;5031136;28;20211;-51
2021/05/03 11:06:36;;;;;;;10.30;7.97;;;13.90;30.30;;;;;;5029202;28;20202;-50
2021/05/03 11:09:25;;;;;;;10.97;8.53;;;13.90;37.10;;;;;;5028102;28;20360;-51
2021/05/03 11:11:51;;;;;;;8.73;7.27;;;13.70;35.00;;;;;;5030754;28;20224;-50
2021/05/03 11:14:20;;;;;;;10.60;7.00;;;14.00;30.80;;;;;;5026599;28;20208;-50
2021/05/03 11:16:50;;;;;;;11.37;6.53;;;13.90;28.20;;;;;;5028303;28;20219;-50
2021/05/03 11:19:28;;;;;;;8.00;6.63;;;13.80;27.20;;;;;;5032854;28;20290;-50
2021/05/03 11:21:55;;;;;;;9.53;7.33;;;13.90;30.20;;;;;;5027222;28;20192;-50
2021/05/03 11:24:25;;;;;;;10.17;6.90;;;13.90;29.50;;;;;;5026412;28;20329;-50
2021/05/03 11:29:48;;;;;;;10.00;7.40;;;13.60;30.40;;;;;;5029641;28;21085;-51
2021/05/03 11:32:15;;;;;;;9.30;7.33;;;13.50;38.90;;;;;;5031335;28;20234;-51
2021/05/03 11:34:47;;;;;;;6.57;5.80;;;13.70;39.00;;;;;;5031157;28;20211;-51
2021/05/03 11:37:18;;;;;;;8.73;5.90;;;13.80;25.20;;;;;;5030601;28;20220;-51
2021/05/03 11:40:02;;;;;;;8.77;6.03;;;13.60;29.00;;;;;;5030047;28;20192;-51
2021/05/03 11:45:07;;;;;;;8.50;6.37;;;13.80;28.70;;;;;;5027880;28;20210;-51
2021/05/03 11:47:38;;;;;;;11.33;6.80;;;13.70;27.80;;;;;;5028893;28;20211;-50
2021/05/03 11:50:05;;;;;;;8.20;6.53;;;13.90;28.50;;;;;;5030843;28;20265;-51
2021/05/03 11:52:34;;;;;;;8.70;6.70;;;13.90;27.90;;;;;;5030253;28;20628;-52
2021/05/03 11:55:15;;;;;;;7.50;6.10;;;14.00;29.10;;;;;;5031255;28;20224;-49
2021/05/03 11:57:47;;;;;;;8.10;6.50;;;13.80;27.30;;;;;;5031004;28;20211;-51
2021/05/03 12:00:16;;;;;;;6.23;5.63;;;13.70;30.90;;;;;;5031879;28;20653;-52
2021/05/03 12:02:44;;;;;;;7.10;6.40;;;13.60;28.20;;;;;;5030918;28;20310;-51
2021/05/03 12:05:18;;;;;;;7.77;6.67;;;13.50;28.10;;;;;;5031801;28;20925;-52
2021/05/03 12:07:46;;;;;;;10.50;6.57;;;13.90;28.10;;;;;;5028608;28;20548;-49
2021/05/03 12:10:22;;;;;;;7.37;6.20;;;14.00;27.30;;;;;;5032343;28;20341;-49
2021/05/03 12:12:53;;;;;;;9.90;6.60;;;14.10;26.50;;;;;;5029197;28;20231;-50
2021/05/03 12:15:21;;;;;;;7.23;5.83;;;14.00;25.80;;;;;;5035060;28;20212;-49
2021/05/03 12:17:49;;;;;;;7.17;6.30;;;14.10;29.40;;;;;;5036941;28;20196;-50
2021/05/03 12:20:23;;;;;;;7.43;6.67;;;14.10;25.40;;;;;;5054204;28;20308;-49
2021/05/03 12:23:01;;;;;;;8.07;7.10;;;14.30;23.50;;;;;;5038108;28;20215;-50
2021/05/03 12:25:31;;;;;;;8.43;7.30;;;14.50;25.00;;;;;;5036310;28;20300;-50
2021/05/03 12:27:58;;;;;;;7.50;6.10;;;14.50;23.90;;;;;;5029286;28;20224;-50
2021/05/03 12:30:25;;;;;;;6.60;5.60;;;14.40;24.90;;;;;;5033399;28;20269;-50
2021/05/03 12:32:51;;;;;;;9.83;6.13;;;14.50;20.90;;;;;;5031741;28;20508;-51
2021/05/03 12:35:21;;;;;;;7.70;6.60;;;14.80;22.10;;;;;;5033635;28;20207;-50
2021/05/03 12:37:47;;;;;;;9.43;6.77;;;14.60;23.80;;;;;;5035049;28;20250;-50
2021/05/03 12:40:14;;;;;;;8.57;6.20;;;14.80;22.70;;;;;;5035265;28;20295;-50
2021/05/03 12:42:46;;;;;;;9.57;6.33;;;14.80;22.90;;;;;;5037574;28;20211;-50
2021/05/03 12:45:24;;;;;;;9.27;6.00;;;14.40;23.90;;;;;;5036719;28;20208;-50
2021/05/03 12:51:20;;;;;;;7.40;5.80;;;14.60;23.30;;;;;;5037343;28;20657;-50
2021/05/03 13:04:32;;;;;;;7.57;5.07;;;14.50;21.30;;;;;;5037840;28;20636;-50
2021/05/03 13:29:36;;;;;;;5.27;3.90;;;14.80;9.30;;;;;;5037217;28;20242;-50
2021/05/03 13:32:03;;;;;;;7.17;4.40;;;14.90;11.20;;;;;;5037324;28;20216;-50
2021/05/03 13:34:30;;;;;;;5.17;4.00;;;14.70;6.80;;;;;;5032614;28;20681;-50
2021/05/03 13:36:56;;;;;;;7.20;4.30;;;14.80;8.80;;;;;;5037040;28;20250;-50
2021/05/03 13:39:22;;;;;;;6.67;4.63;;;14.70;8.90;;;;;;5037632;28;20681;-50
2021/05/03 13:41:50;;;;;;;7.93;5.20;;;14.70;8.10;;;;;;5037402;28;20209;-50
2021/05/03 13:44:18;;;;;;;6.67;4.63;;;14.60;10.50;;;;;;5036105;28;20350;-50
2021/05/03 13:46:48;;;;;;;6.33;4.33;;;14.80;8.10;;;;;;5035071;28;20292;-51
2021/05/03 13:49:15;;;;;;;5.03;4.37;;;15.00;9.30;;;;;;5037377;28;20221;-51
2021/05/03 13:51:43;;;;;;;5.80;4.23;;;15.20;7.70;;;;;;5035293;28;20203;-51
2021/05/03 13:54:10;;;;;;;5.47;4.90;;;14.80;4.60;;;;;;5031464;28;20248;-51
2021/05/03 13:56:38;;;;;;;5.73;5.07;;;14.50;7.10;;;;;;5032470;28;20277;-51
2021/05/03 13:59:04;;;;;;;5.63;4.70;;;14.50;6.00;;;;;;5035836;28;20334;-50
2021/05/03 14:01:31;;;;;;;5.33;4.43;;;14.70;8.30;;;;;;5031989;28;20207;-51
2021/05/03 14:03:57;;;;;;;5.47;4.47;;;15.00;7.70;;;;;;5020115;28;20240;-51